首页
METAR-TAF:

METAR-TAF

机场 :

罗安达, 安哥拉

二月四日国际机场

纬度: 08-51S, 经度: 013-14E, 海拔: 74米

当前天气观测

该预报发布于8分钟前的18:00 UTC
风速8节,风向西转西南
温度 28°C
湿度 84%
气压 1009 hPa
能见度10公里或以上
少量云层高于2200英尺

METAR: FNLU 241800Z 24008KT 9999 FEW022 28/25 Q1009 NOSIG

时间: 19:08 (18:08 UTC)

预报

该预报发布于1小时和38分钟前的16:30 UTC
预报有效从24日的 18点(UTC)到 25日的 24点(UTC)
风速8节,风向西南
能見度: 8000
散云层高于2000英尺
少量云层高于2300英尺, 塔状积云.
多云层高于9000英尺
雷暴, 雨
成为
从 25日的 00点(UTC)到 25日的 02点(UTC)
风速4节,风向北转西北
能見度: 8000
少量云层高于2000英尺
多云层高于8000英尺
小雨, 毛毛雨
几率 30% :
短暂存在
从 25日的 03点(UTC)到 25日的 07点(UTC)
风速5节,风向东转东南
能見度: 7000
少量云层高于1800英尺
少量云 , 积雨云.
多云层高于8000英尺
小毛毛雨, 雨
成为
从 25日的 10点(UTC)到 25日的 12点(UTC)
风速4节,风向西转西北
能见度10公里或以上
散云层高于1800英尺
多云层高于9000英尺

TAF: FNLU 241630Z 2418/2524 23008KT 8000 TSRA SCT020 FEW023TCU BKN090 BECMG 2500/2502 34004KT 8000 -RADZ FEW020 BKN080 PROB30 TEMPO 2503/2507 11005KT 7000 -DZRA FEW018 FEW///CB BKN080 BECMG 2510/2512 27004KT 29004KT 9999 SCT018 BKN090

超过4000个机场的气象观测和天气预报(METAR&TAF报告)。

可查询的气象台以黄色和红色小点在地图上表示。

将鼠标移到小点上方,可查看气象台名称。

然后点击查看天气观测和预报。

如需切换地图:点击带黑十字的绿色按钮放大地图;点击带横线的绿色按钮缩小地图;或者点击绿色箭头查看邻近地区的地图。


METAR-TAF: